Terminal Aerodrome Forecast
Issued by NWS Albany, NY

Home | Current Version | Previous Version | Text Only | Print | Product List | Glossary On
Versions: 1 2 3 4 5 6 7 8 9 10 11 12 13 14 15 16 17 18 19 20 21 22 23 24 25 26 27 28 29 30 31 32 33 34 35 36 37 38 39 40 41 42 43 44 45 46
000
FTUS41 KALY 101744 AAG
TAFALB
TAF AMD
KALB 101744Z 1018/1118 27010KT P6SM VCSH OVC025
      TEMPO 1018/1020 1SM RA BR OVC008
     FM102000 27009KT P6SM VCSH OVC025
     FM110000 30008KT P6SM OVC100
     FM111200 25004KT P6SM BKN250=

USA.gov is the U.S. government's official web portal to all federal, state and local government web resources and services.